sensor_id;sensor_type;location;lat;lon;timestamp;P1;durP1;ratioP1;P2;durP2;ratioP2
52512;SDS011;38422;53.172;6.974;2022-10-22T00:00:28;9.52;;;6.82;;
52512;SDS011;38422;53.172;6.974;2022-10-22T00:02:54;8.93;;;6.70;;
52512;SDS011;38422;53.172;6.974;2022-10-22T00:05:19;8.15;;;6.75;;
52512;SDS011;38422;53.172;6.974;2022-10-22T00:07:45;10.93;;;6.57;;
52512;SDS011;38422;53.172;6.974;2022-10-22T00:10:11;11.52;;;6.75;;
52512;SDS011;38422;53.172;6.974;2022-10-22T00:12:36;9.95;;;6.55;;
52512;SDS011;38422;53.172;6.974;2022-10-22T00:15:03;8.88;;;6.50;;
52512;SDS011;38422;53.172;6.974;2022-10-22T00:17:29;10.73;;;7.38;;
52512;SDS011;38422;53.172;6.974;2022-10-22T00:19:55;13.02;;;6.90;;
52512;SDS011;38422;53.172;6.974;2022-10-22T00:22:21;9.80;;;6.60;;
52512;SDS011;38422;53.172;6.974;2022-10-22T00:24:47;8.18;;;6.40;;
52512;SDS011;38422;53.172;6.974;2022-10-22T00:27:12;8.00;;;6.03;;
52512;SDS011;38422;53.172;6.974;2022-10-22T00:29:38;8.82;;;6.13;;
52512;SDS011;38422;53.172;6.974;2022-10-22T00:32:04;9.00;;;6.45;;
52512;SDS011;38422;53.172;6.974;2022-10-22T00:34:30;10.70;;;6.93;;
52512;SDS011;38422;53.172;6.974;2022-10-22T00:36:56;11.55;;;7.55;;
52512;SDS011;38422;53.172;6.974;2022-10-22T00:39:23;11.27;;;7.07;;
52512;SDS011;38422;53.172;6.974;2022-10-22T00:41:51;12.30;;;6.88;;
52512;SDS011;38422;53.172;6.974;2022-10-22T00:47:01;10.23;;;6.00;;
52512;SDS011;38422;53.172;6.974;2022-10-22T00:49:27;11.70;;;6.57;;
52512;SDS011;38422;53.172;6.974;2022-10-22T00:51:53;8.25;;;5.85;;
52512;SDS011;38422;53.172;6.974;2022-10-22T00:54:19;9.45;;;6.38;;
52512;SDS011;38422;53.172;6.974;2022-10-22T00:56:44;8.43;;;6.28;;
52512;SDS011;38422;53.172;6.974;2022-10-22T00:59:10;10.07;;;6.07;;
52512;SDS011;38422;53.172;6.974;2022-10-22T01:01:38;9.30;;;5.63;;
52512;SDS011;38422;53.172;6.974;2022-10-22T01:04:04;8.88;;;6.05;;
52512;SDS011;38422;53.172;6.974;2022-10-22T01:06:30;9.95;;;6.07;;
52512;SDS011;38422;53.172;6.974;2022-10-22T01:09:08;10.52;;;6.40;;
52512;SDS011;38422;53.172;6.974;2022-10-22T01:12:00;7.97;;;5.22;;
52512;SDS011;38422;53.172;6.974;2022-10-22T01:17:27;9.30;;;5.82;;
52512;SDS011;38422;53.172;6.974;2022-10-22T01:25:46;7.70;;;5.47;;
52512;SDS011;38422;53.172;6.974;2022-10-22T01:29:29;9.23;;;5.10;;
52512;SDS011;38422;53.172;6.974;2022-10-22T01:31:28;9.50;;;5.30;;
52512;SDS011;38422;53.172;6.974;2022-10-22T01:33:59;8.52;;;5.20;;
52512;SDS011;38422;53.172;6.974;2022-10-22T01:36:28;9.13;;;5.50;;
52512;SDS011;38422;53.172;6.974;2022-10-22T01:38:55;10.52;;;5.75;;
52512;SDS011;38422;53.172;6.974;2022-10-22T01:41:25;8.38;;;5.95;;
52512;SDS011;38422;53.172;6.974;2022-10-22T01:43:54;7.85;;;5.38;;
52512;SDS011;38422;53.172;6.974;2022-10-22T01:46:20;7.07;;;4.63;;
52512;SDS011;38422;53.172;6.974;2022-10-22T01:49:04;8.07;;;4.93;;
52512;SDS011;38422;53.172;6.974;2022-10-22T01:55:04;8.52;;;5.35;;
52512;SDS011;38422;53.172;6.974;2022-10-22T01:58:13;10.25;;;5.78;;
52512;SDS011;38422;53.172;6.974;2022-10-22T02:00:47;7.25;;;4.97;;
52512;SDS011;38422;53.172;6.974;2022-10-22T02:03:23;9.50;;;5.63;;
52512;SDS011;38422;53.172;6.974;2022-10-22T02:05:56;9.45;;;5.30;;
52512;SDS011;38422;53.172;6.974;2022-10-22T02:08:28;9.02;;;5.60;;
52512;SDS011;38422;53.172;6.974;2022-10-22T02:10:56;9.05;;;5.80;;
52512;SDS011;38422;53.172;6.974;2022-10-22T02:13:24;6.57;;;4.78;;
52512;SDS011;38422;53.172;6.974;2022-10-22T02:16:24;6.82;;;5.22;;
52512;SDS011;38422;53.172;6.974;2022-10-22T02:18:55;8.52;;;5.78;;
52512;SDS011;38422;53.172;6.974;2022-10-22T02:21:25;6.72;;;5.22;;
52512;SDS011;38422;53.172;6.974;2022-10-22T02:23:51;6.60;;;4.55;;
52512;SDS011;38422;53.172;6.974;2022-10-22T02:26:21;10.10;;;4.80;;
52512;SDS011;38422;53.172;6.974;2022-10-22T02:28:55;8.23;;;4.95;;
52512;SDS011;38422;53.172;6.974;2022-10-22T02:31:27;8.50;;;5.45;;
52512;SDS011;38422;53.172;6.974;2022-10-22T02:33:56;10.65;;;6.18;;
52512;SDS011;38422;53.172;6.974;2022-10-22T02:36:28;9.20;;;5.90;;
52512;SDS011;38422;53.172;6.974;2022-10-22T02:38:54;8.77;;;5.43;;
52512;SDS011;38422;53.172;6.974;2022-10-22T02:41:21;10.35;;;5.93;;
52512;SDS011;38422;53.172;6.974;2022-10-22T02:43:48;8.53;;;5.80;;
52512;SDS011;38422;53.172;6.974;2022-10-22T02:46:17;10.98;;;5.82;;
52512;SDS011;38422;53.172;6.974;2022-10-22T02:48:43;8.63;;;5.88;;
52512;SDS011;38422;53.172;6.974;2022-10-22T02:51:09;7.93;;;5.60;;
52512;SDS011;38422;53.172;6.974;2022-10-22T02:53:34;8.68;;;5.22;;
52512;SDS011;38422;53.172;6.974;2022-10-22T02:56:00;7.90;;;5.63;;
52512;SDS011;38422;53.172;6.974;2022-10-22T02:58:26;9.65;;;5.65;;
52512;SDS011;38422;53.172;6.974;2022-10-22T03:00:51;9.15;;;5.88;;
52512;SDS011;38422;53.172;6.974;2022-10-22T03:03:17;8.10;;;5.63;;
52512;SDS011;38422;53.172;6.974;2022-10-22T03:05:43;9.48;;;6.28;;
52512;SDS011;38422;53.172;6.974;2022-10-22T03:08:09;9.45;;;5.18;;
52512;SDS011;38422;53.172;6.974;2022-10-22T03:10:34;6.88;;;4.88;;
52512;SDS011;38422;53.172;6.974;2022-10-22T03:13:00;9.98;;;5.43;;
52512;SDS011;38422;53.172;6.974;2022-10-22T03:15:26;9.80;;;5.57;;
52512;SDS011;38422;53.172;6.974;2022-10-22T03:17:51;10.70;;;6.97;;
52512;SDS011;38422;53.172;6.974;2022-10-22T03:20:17;7.75;;;5.57;;
52512;SDS011;38422;53.172;6.974;2022-10-22T03:22:42;7.15;;;5.28;;
52512;SDS011;38422;53.172;6.974;2022-10-22T03:25:09;11.13;;;6.55;;
52512;SDS011;38422;53.172;6.974;2022-10-22T03:27:38;11.18;;;5.80;;
52512;SDS011;38422;53.172;6.974;2022-10-22T03:30:05;11.82;;;6.47;;
52512;SDS011;38422;53.172;6.974;2022-10-22T03:32:32;11.02;;;5.65;;
52512;SDS011;38422;53.172;6.974;2022-10-22T03:34:58;8.15;;;5.88;;
52512;SDS011;38422;53.172;6.974;2022-10-22T03:37:24;10.65;;;6.13;;
52512;SDS011;38422;53.172;6.974;2022-10-22T03:39:51;9.68;;;6.05;;
52512;SDS011;38422;53.172;6.974;2022-10-22T03:42:18;7.43;;;5.55;;
52512;SDS011;38422;53.172;6.974;2022-10-22T03:44:44;10.87;;;6.83;;
52512;SDS011;38422;53.172;6.974;2022-10-22T03:47:10;9.95;;;6.10;;
52512;SDS011;38422;53.172;6.974;2022-10-22T03:49:36;9.00;;;6.05;;
52512;SDS011;38422;53.172;6.974;2022-10-22T03:52:12;13.43;;;6.32;;
52512;SDS011;38422;53.172;6.974;2022-10-22T03:54:38;9.65;;;6.40;;
52512;SDS011;38422;53.172;6.974;2022-10-22T03:57:06;9.38;;;6.40;;
52512;SDS011;38422;53.172;6.974;2022-10-22T03:59:36;12.02;;;6.53;;
52512;SDS011;38422;53.172;6.974;2022-10-22T04:02:04;10.63;;;6.97;;
52512;SDS011;38422;53.172;6.974;2022-10-22T04:04:29;9.25;;;6.45;;
52512;SDS011;38422;53.172;6.974;2022-10-22T04:06:55;11.32;;;6.95;;
52512;SDS011;38422;53.172;6.974;2022-10-22T04:09:21;10.70;;;6.70;;
52512;SDS011;38422;53.172;6.974;2022-10-22T04:11:47;10.40;;;6.88;;
52512;SDS011;38422;53.172;6.974;2022-10-22T04:14:13;10.75;;;7.00;;
52512;SDS011;38422;53.172;6.974;2022-10-22T04:16:39;11.88;;;6.60;;
52512;SDS011;38422;53.172;6.974;2022-10-22T04:19:05;11.20;;;6.70;;
52512;SDS011;38422;53.172;6.974;2022-10-22T04:21:31;11.02;;;6.60;;
52512;SDS011;38422;53.172;6.974;2022-10-22T04:23:57;12.52;;;6.78;;
52512;SDS011;38422;53.172;6.974;2022-10-22T04:26:23;8.40;;;6.43;;
52512;SDS011;38422;53.172;6.974;2022-10-22T04:28:50;13.27;;;7.57;;
52512;SDS011;38422;53.172;6.974;2022-10-22T04:31:17;10.00;;;6.53;;
52512;SDS011;38422;53.172;6.974;2022-10-22T04:33:45;12.50;;;6.93;;
52512;SDS011;38422;53.172;6.974;2022-10-22T04:36:13;12.53;;;7.60;;
52512;SDS011;38422;53.172;6.974;2022-10-22T04:38:41;10.75;;;7.43;;
52512;SDS011;38422;53.172;6.974;2022-10-22T04:41:11;12.00;;;7.55;;
52512;SDS011;38422;53.172;6.974;2022-10-22T04:43:39;10.48;;;7.22;;
52512;SDS011;38422;53.172;6.974;2022-10-22T04:46:05;15.52;;;7.70;;
52512;SDS011;38422;53.172;6.974;2022-10-22T04:48:33;13.20;;;7.88;;
52512;SDS011;38422;53.172;6.974;2022-10-22T04:51:00;10.52;;;7.45;;
52512;SDS011;38422;53.172;6.974;2022-10-22T04:53:26;10.10;;;7.00;;
52512;SDS011;38422;53.172;6.974;2022-10-22T04:55:52;10.85;;;7.10;;
52512;SDS011;38422;53.172;6.974;2022-10-22T04:58:17;11.63;;;7.53;;
52512;SDS011;38422;53.172;6.974;2022-10-22T05:00:43;11.25;;;7.55;;
52512;SDS011;38422;53.172;6.974;2022-10-22T05:03:09;8.85;;;6.88;;
52512;SDS011;38422;53.172;6.974;2022-10-22T05:05:35;10.93;;;7.43;;
52512;SDS011;38422;53.172;6.974;2022-10-22T05:08:00;9.65;;;6.90;;
52512;SDS011;38422;53.172;6.974;2022-10-22T05:10:26;11.38;;;6.78;;
52512;SDS011;38422;53.172;6.974;2022-10-22T05:12:52;10.02;;;6.68;;
52512;SDS011;38422;53.172;6.974;2022-10-22T05:15:18;9.48;;;6.38;;
52512;SDS011;38422;53.172;6.974;2022-10-22T05:17:43;10.52;;;6.68;;
52512;SDS011;38422;53.172;6.974;2022-10-22T05:20:10;11.60;;;7.10;;
52512;SDS011;38422;53.172;6.974;2022-10-22T05:22:35;9.10;;;6.90;;
52512;SDS011;38422;53.172;6.974;2022-10-22T05:25:01;13.07;;;7.28;;
52512;SDS011;38422;53.172;6.974;2022-10-22T05:27:27;9.20;;;6.65;;
52512;SDS011;38422;53.172;6.974;2022-10-22T05:29:53;11.57;;;6.30;;
52512;SDS011;38422;53.172;6.974;2022-10-22T05:32:18;8.77;;;6.88;;
52512;SDS011;38422;53.172;6.974;2022-10-22T05:34:44;11.65;;;7.75;;
52512;SDS011;38422;53.172;6.974;2022-10-22T05:37:09;12.73;;;7.65;;
52512;SDS011;38422;53.172;6.974;2022-10-22T05:39:35;12.40;;;7.28;;
52512;SDS011;38422;53.172;6.974;2022-10-22T05:42:03;13.07;;;7.30;;
52512;SDS011;38422;53.172;6.974;2022-10-22T05:44:29;11.68;;;7.07;;
52512;SDS011;38422;53.172;6.974;2022-10-22T05:46:55;10.80;;;7.18;;
52512;SDS011;38422;53.172;6.974;2022-10-22T05:49:21;11.05;;;7.30;;
52512;SDS011;38422;53.172;6.974;2022-10-22T05:51:46;11.95;;;6.70;;
52512;SDS011;38422;53.172;6.974;2022-10-22T05:54:17;9.73;;;7.32;;
52512;SDS011;38422;53.172;6.974;2022-10-22T05:56:43;10.05;;;6.57;;
52512;SDS011;38422;53.172;6.974;2022-10-22T05:59:10;9.85;;;6.93;;
52512;SDS011;38422;53.172;6.974;2022-10-22T06:01:37;9.27;;;6.63;;
52512;SDS011;38422;53.172;6.974;2022-10-22T06:04:05;9.80;;;6.88;;
52512;SDS011;38422;53.172;6.974;2022-10-22T06:06:38;10.18;;;6.60;;
52512;SDS011;38422;53.172;6.974;2022-10-22T06:11:42;10.68;;;7.22;;
52512;SDS011;38422;53.172;6.974;2022-10-22T06:14:09;12.95;;;7.40;;
52512;SDS011;38422;53.172;6.974;2022-10-22T06:16:35;11.73;;;7.57;;
52512;SDS011;38422;53.172;6.974;2022-10-22T06:19:01;9.77;;;7.18;;
52512;SDS011;38422;53.172;6.974;2022-10-22T06:21:27;10.02;;;6.93;;
52512;SDS011;38422;53.172;6.974;2022-10-22T06:23:57;10.82;;;7.30;;
52512;SDS011;38422;53.172;6.974;2022-10-22T06:26:24;13.15;;;8.23;;
52512;SDS011;38422;53.172;6.974;2022-10-22T06:28:50;11.70;;;8.20;;
52512;SDS011;38422;53.172;6.974;2022-10-22T06:31:16;14.25;;;8.73;;
52512;SDS011;38422;53.172;6.974;2022-10-22T06:33:42;14.45;;;8.23;;
52512;SDS011;38422;53.172;6.974;2022-10-22T06:36:12;12.88;;;8.10;;
52512;SDS011;38422;53.172;6.974;2022-10-22T06:38:40;13.40;;;7.55;;
52512;SDS011;38422;53.172;6.974;2022-10-22T06:41:13;13.57;;;7.90;;
52512;SDS011;38422;53.172;6.974;2022-10-22T06:43:40;11.73;;;7.45;;
52512;SDS011;38422;53.172;6.974;2022-10-22T06:46:09;13.48;;;8.80;;
52512;SDS011;38422;53.172;6.974;2022-10-22T06:48:36;15.43;;;8.40;;
52512;SDS011;38422;53.172;6.974;2022-10-22T06:51:03;11.85;;;7.80;;
52512;SDS011;38422;53.172;6.974;2022-10-22T06:53:30;13.27;;;8.55;;
52512;SDS011;38422;53.172;6.974;2022-10-22T06:55:56;10.98;;;8.32;;
52512;SDS011;38422;53.172;6.974;2022-10-22T06:58:22;14.25;;;8.52;;
52512;SDS011;38422;53.172;6.974;2022-10-22T07:00:47;13.73;;;8.77;;
52512;SDS011;38422;53.172;6.974;2022-10-22T07:03:13;14.90;;;8.18;;
52512;SDS011;38422;53.172;6.974;2022-10-22T07:05:39;11.30;;;8.15;;
52512;SDS011;38422;53.172;6.974;2022-10-22T07:08:06;12.18;;;8.75;;
52512;SDS011;38422;53.172;6.974;2022-10-22T07:10:32;13.57;;;8.48;;
52512;SDS011;38422;53.172;6.974;2022-10-22T07:12:58;13.23;;;8.25;;
52512;SDS011;38422;53.172;6.974;2022-10-22T07:15:23;17.80;;;9.40;;
52512;SDS011;38422;53.172;6.974;2022-10-22T07:17:49;12.80;;;8.20;;
52512;SDS011;38422;53.172;6.974;2022-10-22T07:20:18;15.55;;;8.60;;
52512;SDS011;38422;53.172;6.974;2022-10-22T07:22:45;14.30;;;8.10;;
52512;SDS011;38422;53.172;6.974;2022-10-22T07:25:11;11.13;;;7.57;;
52512;SDS011;38422;53.172;6.974;2022-10-22T07:27:36;11.85;;;7.72;;
52512;SDS011;38422;53.172;6.974;2022-10-22T07:30:02;13.73;;;7.63;;
52512;SDS011;38422;53.172;6.974;2022-10-22T07:32:28;13.07;;;7.25;;
52512;SDS011;38422;53.172;6.974;2022-10-22T07:34:54;14.15;;;7.72;;
52512;SDS011;38422;53.172;6.974;2022-10-22T07:37:20;13.07;;;7.68;;
52512;SDS011;38422;53.172;6.974;2022-10-22T07:39:46;13.05;;;8.27;;
52512;SDS011;38422;53.172;6.974;2022-10-22T07:42:13;13.75;;;8.25;;
52512;SDS011;38422;53.172;6.974;2022-10-22T07:44:38;14.02;;;8.73;;
52512;SDS011;38422;53.172;6.974;2022-10-22T07:47:04;12.85;;;8.13;;
52512;SDS011;38422;53.172;6.974;2022-10-22T07:49:30;15.18;;;8.10;;
52512;SDS011;38422;53.172;6.974;2022-10-22T07:51:55;15.30;;;8.75;;
52512;SDS011;38422;53.172;6.974;2022-10-22T07:54:21;17.98;;;8.68;;
52512;SDS011;38422;53.172;6.974;2022-10-22T07:56:47;15.32;;;8.55;;
52512;SDS011;38422;53.172;6.974;2022-10-22T07:59:13;15.00;;;8.50;;
52512;SDS011;38422;53.172;6.974;2022-10-22T08:01:39;13.48;;;7.65;;
52512;SDS011;38422;53.172;6.974;2022-10-22T08:04:04;16.25;;;8.35;;
52512;SDS011;38422;53.172;6.974;2022-10-22T08:06:32;14.57;;;8.27;;
52512;SDS011;38422;53.172;6.974;2022-10-22T08:08:58;14.97;;;8.57;;
52512;SDS011;38422;53.172;6.974;2022-10-22T08:11:24;15.75;;;8.15;;
52512;SDS011;38422;53.172;6.974;2022-10-22T08:13:51;11.88;;;7.50;;
52512;SDS011;38422;53.172;6.974;2022-10-22T08:16:17;13.33;;;7.40;;
52512;SDS011;38422;53.172;6.974;2022-10-22T08:18:43;13.65;;;7.65;;
52512;SDS011;38422;53.172;6.974;2022-10-22T08:21:09;12.95;;;7.70;;
52512;SDS011;38422;53.172;6.974;2022-10-22T08:23:35;13.35;;;6.90;;
52512;SDS011;38422;53.172;6.974;2022-10-22T08:26:01;15.00;;;7.15;;
52512;SDS011;38422;53.172;6.974;2022-10-22T08:28:27;15.10;;;7.88;;
52512;SDS011;38422;53.172;6.974;2022-10-22T08:30:53;14.10;;;8.00;;
52512;SDS011;38422;53.172;6.974;2022-10-22T08:33:19;16.70;;;8.80;;
52512;SDS011;38422;53.172;6.974;2022-10-22T08:35:49;12.38;;;7.68;;
52512;SDS011;38422;53.172;6.974;2022-10-22T08:38:16;17.23;;;9.10;;
52512;SDS011;38422;53.172;6.974;2022-10-22T08:40:42;17.88;;;9.20;;
52512;SDS011;38422;53.172;6.974;2022-10-22T08:48:49;13.13;;;7.10;;
52512;SDS011;38422;53.172;6.974;2022-10-22T08:51:22;17.50;;;6.25;;
52512;SDS011;38422;53.172;6.974;2022-10-22T08:56:31;12.57;;;5.70;;
52512;SDS011;38422;53.172;6.974;2022-10-22T08:59:03;13.20;;;5.93;;
52512;SDS011;38422;53.172;6.974;2022-10-22T09:01:37;10.40;;;5.18;;
52512;SDS011;38422;53.172;6.974;2022-10-22T09:04:17;10.50;;;4.95;;
52512;SDS011;38422;53.172;6.974;2022-10-22T09:07:02;10.05;;;5.30;;
52512;SDS011;38422;53.172;6.974;2022-10-22T09:09:30;11.55;;;5.45;;
52512;SDS011;38422;53.172;6.974;2022-10-22T09:12:00;12.10;;;4.78;;
52512;SDS011;38422;53.172;6.974;2022-10-22T09:14:26;10.45;;;5.00;;
52512;SDS011;38422;53.172;6.974;2022-10-22T09:19:37;12.32;;;4.50;;
52512;SDS011;38422;53.172;6.974;2022-10-22T09:25:28;14.10;;;4.65;;
52512;SDS011;38422;53.172;6.974;2022-10-22T09:27:56;12.05;;;4.63;;
52512;SDS011;38422;53.172;6.974;2022-10-22T09:30:24;9.10;;;4.07;;
52512;SDS011;38422;53.172;6.974;2022-10-22T09:33:34;10.55;;;3.90;;
52512;SDS011;38422;53.172;6.974;2022-10-22T09:35:53;11.70;;;4.00;;
52512;SDS011;38422;53.172;6.974;2022-10-22T09:38:25;9.02;;;3.97;;
52512;SDS011;38422;53.172;6.974;2022-10-22T09:40:54;14.77;;;4.10;;
52512;SDS011;38422;53.172;6.974;2022-10-22T09:43:21;11.90;;;4.45;;
52512;SDS011;38422;53.172;6.974;2022-10-22T09:45:48;12.30;;;3.80;;
52512;SDS011;38422;53.172;6.974;2022-10-22T09:48:26;9.20;;;3.65;;
52512;SDS011;38422;53.172;6.974;2022-10-22T09:53:43;10.43;;;3.45;;
52512;SDS011;38422;53.172;6.974;2022-10-22T09:58:52;9.85;;;3.20;;
52512;SDS011;38422;53.172;6.974;2022-10-22T10:01:23;10.07;;;3.40;;
52512;SDS011;38422;53.172;6.974;2022-10-22T10:03:51;9.45;;;3.10;;
52512;SDS011;38422;53.172;6.974;2022-10-22T10:06:21;8.82;;;3.13;;
52512;SDS011;38422;53.172;6.974;2022-10-22T10:08:47;10.95;;;3.28;;
52512;SDS011;38422;53.172;6.974;2022-10-22T10:11:17;6.43;;;2.55;;
52512;SDS011;38422;53.172;6.974;2022-10-22T10:24:25;7.00;;;3.00;;
52512;SDS011;38422;53.172;6.974;2022-10-22T10:29:53;9.38;;;2.88;;
52512;SDS011;38422;53.172;6.974;2022-10-22T10:43:16;6.45;;;2.90;;
52512;SDS011;38422;53.172;6.974;2022-10-22T10:46:16;8.20;;;3.05;;
52512;SDS011;38422;53.172;6.974;2022-10-22T10:49:08;8.68;;;2.80;;
52512;SDS011;38422;53.172;6.974;2022-10-22T10:57:12;8.70;;;3.13;;
52512;SDS011;38422;53.172;6.974;2022-10-22T11:00:07;9.30;;;2.85;;
52512;SDS011;38422;53.172;6.974;2022-10-22T11:07:57;10.30;;;3.60;;
52512;SDS011;38422;53.172;6.974;2022-10-22T11:10:35;8.18;;;3.03;;
52512;SDS011;38422;53.172;6.974;2022-10-22T11:13:13;10.57;;;3.58;;
52512;SDS011;38422;53.172;6.974;2022-10-22T11:15:59;10.75;;;3.70;;
52512;SDS011;38422;53.172;6.974;2022-10-22T11:18:42;9.75;;;3.50;;
52512;SDS011;38422;53.172;6.974;2022-10-22T11:23:47;6.70;;;3.08;;
52512;SDS011;38422;53.172;6.974;2022-10-22T11:26:51;8.30;;;3.40;;
52512;SDS011;38422;53.172;6.974;2022-10-22T11:29:26;11.27;;;3.60;;
52512;SDS011;38422;53.172;6.974;2022-10-22T11:31:56;9.70;;;3.13;;
52512;SDS011;38422;53.172;6.974;2022-10-22T11:37:13;11.55;;;3.95;;
52512;SDS011;38422;53.172;6.974;2022-10-22T11:42:10;10.00;;;3.70;;
52512;SDS011;38422;53.172;6.974;2022-10-22T11:47:56;9.57;;;3.75;;
52512;SDS011;38422;53.172;6.974;2022-10-22T12:00:54;9.50;;;4.55;;
52512;SDS011;38422;53.172;6.974;2022-10-22T12:06:05;9.45;;;4.75;;
52512;SDS011;38422;53.172;6.974;2022-10-22T12:08:44;8.25;;;4.20;;
52512;SDS011;38422;53.172;6.974;2022-10-22T12:16:47;11.75;;;4.90;;
52512;SDS011;38422;53.172;6.974;2022-10-22T12:19:30;11.93;;;4.50;;
52512;SDS011;38422;53.172;6.974;2022-10-22T12:24:45;9.80;;;4.20;;
52512;SDS011;38422;53.172;6.974;2022-10-22T12:27:23;9.07;;;4.25;;
52512;SDS011;38422;53.172;6.974;2022-10-22T12:29:59;9.98;;;4.30;;
52512;SDS011;38422;53.172;6.974;2022-10-22T12:32:33;6.38;;;3.95;;
52512;SDS011;38422;53.172;6.974;2022-10-22T12:35:03;10.80;;;3.83;;
52512;SDS011;38422;53.172;6.974;2022-10-22T12:37:30;7.47;;;4.13;;
52512;SDS011;38422;53.172;6.974;2022-10-22T12:40:00;10.93;;;4.00;;
52512;SDS011;38422;53.172;6.974;2022-10-22T12:42:26;7.93;;;3.70;;
52512;SDS011;38422;53.172;6.974;2022-10-22T12:44:55;8.93;;;3.92;;
52512;SDS011;38422;53.172;6.974;2022-10-22T12:47:20;11.15;;;4.13;;
52512;SDS011;38422;53.172;6.974;2022-10-22T12:49:47;8.45;;;4.10;;
52512;SDS011;38422;53.172;6.974;2022-10-22T12:52:18;9.75;;;4.40;;
52512;SDS011;38422;53.172;6.974;2022-10-22T12:54:46;11.15;;;4.78;;
52512;SDS011;38422;53.172;6.974;2022-10-22T12:57:17;9.00;;;3.90;;
52512;SDS011;38422;53.172;6.974;2022-10-22T12:59:45;13.02;;;4.55;;
52512;SDS011;38422;53.172;6.974;2022-10-22T13:02:23;9.57;;;4.10;;
52512;SDS011;38422;53.172;6.974;2022-10-22T13:07:52;13.27;;;5.25;;
52512;SDS011;38422;53.172;6.974;2022-10-22T13:10:29;10.10;;;4.60;;
52512;SDS011;38422;53.172;6.974;2022-10-22T13:13:00;9.60;;;4.75;;
52512;SDS011;38422;53.172;6.974;2022-10-22T13:18:32;7.40;;;3.90;;
52512;SDS011;38422;53.172;6.974;2022-10-22T13:20:58;7.28;;;3.20;;
52512;SDS011;38422;53.172;6.974;2022-10-22T13:23:27;8.43;;;2.65;;
52512;SDS011;38422;53.172;6.974;2022-10-22T13:26:02;6.45;;;2.42;;
52512;SDS011;38422;53.172;6.974;2022-10-22T13:28:34;6.47;;;2.55;;
52512;SDS011;38422;53.172;6.974;2022-10-22T13:31:01;6.75;;;3.22;;
52512;SDS011;38422;53.172;6.974;2022-10-22T13:33:40;7.22;;;3.15;;
52512;SDS011;38422;53.172;6.974;2022-10-22T13:36:10;7.40;;;3.53;;
52512;SDS011;38422;53.172;6.974;2022-10-22T13:38:38;8.45;;;3.13;;
52512;SDS011;38422;53.172;6.974;2022-10-22T13:41:15;5.78;;;2.50;;
52512;SDS011;38422;53.172;6.974;2022-10-22T13:43:52;6.47;;;2.60;;
52512;SDS011;38422;53.172;6.974;2022-10-22T13:46:18;7.40;;;2.80;;
52512;SDS011;38422;53.172;6.974;2022-10-22T13:48:46;6.57;;;2.25;;
52512;SDS011;38422;53.172;6.974;2022-10-22T13:51:23;6.38;;;2.15;;
52512;SDS011;38422;53.172;6.974;2022-10-22T13:53:54;6.45;;;2.42;;
52512;SDS011;38422;53.172;6.974;2022-10-22T13:56:21;8.87;;;2.83;;
52512;SDS011;38422;53.172;6.974;2022-10-22T13:58:48;8.82;;;2.58;;
52512;SDS011;38422;53.172;6.974;2022-10-22T14:01:19;6.77;;;2.27;;
52512;SDS011;38422;53.172;6.974;2022-10-22T14:03:47;6.20;;;2.10;;
52512;SDS011;38422;53.172;6.974;2022-10-22T14:06:15;5.30;;;1.95;;
52512;SDS011;38422;53.172;6.974;2022-10-22T14:08:43;7.50;;;2.00;;
52512;SDS011;38422;53.172;6.974;2022-10-22T14:11:12;6.60;;;1.80;;
52512;SDS011;38422;53.172;6.974;2022-10-22T14:13:38;7.72;;;1.92;;
52512;SDS011;38422;53.172;6.974;2022-10-22T14:16:05;5.60;;;2.10;;
52512;SDS011;38422;53.172;6.974;2022-10-22T14:18:38;8.70;;;2.08;;
52512;SDS011;38422;53.172;6.974;2022-10-22T14:21:03;5.93;;;1.77;;
52512;SDS011;38422;53.172;6.974;2022-10-22T14:23:32;6.75;;;2.28;;
52512;SDS011;38422;53.172;6.974;2022-10-22T14:25:58;9.57;;;2.35;;
52512;SDS011;38422;53.172;6.974;2022-10-22T14:28:25;7.70;;;2.90;;
52512;SDS011;38422;53.172;6.974;2022-10-22T14:30:51;7.30;;;2.10;;
52512;SDS011;38422;53.172;6.974;2022-10-22T14:33:26;7.90;;;2.25;;
52512;SDS011;38422;53.172;6.974;2022-10-22T14:35:56;10.70;;;3.00;;
52512;SDS011;38422;53.172;6.974;2022-10-22T14:38:23;7.20;;;2.20;;
52512;SDS011;38422;53.172;6.974;2022-10-22T14:40:48;8.57;;;2.05;;
52512;SDS011;38422;53.172;6.974;2022-10-22T14:43:24;8.02;;;2.30;;
52512;SDS011;38422;53.172;6.974;2022-10-22T14:45:52;6.72;;;2.47;;
52512;SDS011;38422;53.172;6.974;2022-10-22T14:48:18;8.02;;;2.00;;
52512;SDS011;38422;53.172;6.974;2022-10-22T14:50:44;10.63;;;2.15;;
52512;SDS011;38422;53.172;6.974;2022-10-22T14:53:10;8.70;;;2.38;;
52512;SDS011;38422;53.172;6.974;2022-10-22T14:55:38;7.55;;;2.33;;
52512;SDS011;38422;53.172;6.974;2022-10-22T14:58:04;6.93;;;2.67;;
52512;SDS011;38422;53.172;6.974;2022-10-22T15:00:30;6.13;;;1.55;;
52512;SDS011;38422;53.172;6.974;2022-10-22T15:02:58;7.65;;;1.63;;
52512;SDS011;38422;53.172;6.974;2022-10-22T15:05:24;5.90;;;1.20;;
52512;SDS011;38422;53.172;6.974;2022-10-22T15:07:50;7.35;;;1.65;;
52512;SDS011;38422;53.172;6.974;2022-10-22T15:10:15;4.40;;;1.13;;
52512;SDS011;38422;53.172;6.974;2022-10-22T15:12:41;5.15;;;1.50;;
52512;SDS011;38422;53.172;6.974;2022-10-22T15:15:07;4.35;;;1.30;;
52512;SDS011;38422;53.172;6.974;2022-10-22T15:17:33;7.10;;;1.35;;
52512;SDS011;38422;53.172;6.974;2022-10-22T15:19:58;7.93;;;1.38;;
52512;SDS011;38422;53.172;6.974;2022-10-22T15:22:28;4.65;;;1.10;;
52512;SDS011;38422;53.172;6.974;2022-10-22T15:24:56;4.97;;;1.10;;
52512;SDS011;38422;53.172;6.974;2022-10-22T15:27:22;6.30;;;1.10;;
52512;SDS011;38422;53.172;6.974;2022-10-22T15:29:48;6.03;;;1.20;;
52512;SDS011;38422;53.172;6.974;2022-10-22T15:32:14;7.43;;;1.60;;
52512;SDS011;38422;53.172;6.974;2022-10-22T15:34:39;9.18;;;1.30;;
52512;SDS011;38422;53.172;6.974;2022-10-22T15:37:09;5.18;;;1.02;;
52512;SDS011;38422;53.172;6.974;2022-10-22T15:39:40;7.15;;;1.25;;
52512;SDS011;38422;53.172;6.974;2022-10-22T15:42:06;4.72;;;0.90;;
52512;SDS011;38422;53.172;6.974;2022-10-22T15:44:33;5.28;;;1.30;;
52512;SDS011;38422;53.172;6.974;2022-10-22T15:46:59;6.25;;;1.23;;
52512;SDS011;38422;53.172;6.974;2022-10-22T15:49:28;6.03;;;1.10;;
52512;SDS011;38422;53.172;6.974;2022-10-22T15:51:54;6.70;;;1.20;;
52512;SDS011;38422;53.172;6.974;2022-10-22T15:54:25;5.20;;;1.27;;
52512;SDS011;38422;53.172;6.974;2022-10-22T15:56:52;6.47;;;2.05;;
52512;SDS011;38422;53.172;6.974;2022-10-22T15:59:19;7.38;;;1.60;;
52512;SDS011;38422;53.172;6.974;2022-10-22T16:01:45;6.57;;;1.40;;
52512;SDS011;38422;53.172;6.974;2022-10-22T16:04:11;7.30;;;1.50;;
52512;SDS011;38422;53.172;6.974;2022-10-22T16:06:41;7.32;;;1.50;;
52512;SDS011;38422;53.172;6.974;2022-10-22T16:09:13;12.10;;;1.55;;
52512;SDS011;38422;53.172;6.974;2022-10-22T16:11:40;11.35;;;1.60;;
52512;SDS011;38422;53.172;6.974;2022-10-22T16:14:06;7.70;;;1.27;;
52512;SDS011;38422;53.172;6.974;2022-10-22T16:16:35;8.07;;;1.35;;
52512;SDS011;38422;53.172;6.974;2022-10-22T16:19:04;6.97;;;1.35;;
52512;SDS011;38422;53.172;6.974;2022-10-22T16:21:29;8.55;;;2.10;;
52512;SDS011;38422;53.172;6.974;2022-10-22T16:23:55;9.88;;;1.70;;
52512;SDS011;38422;53.172;6.974;2022-10-22T16:26:21;10.25;;;1.50;;
52512;SDS011;38422;53.172;6.974;2022-10-22T16:28:47;11.40;;;1.65;;
52512;SDS011;38422;53.172;6.974;2022-10-22T16:31:14;10.93;;;1.70;;
52512;SDS011;38422;53.172;6.974;2022-10-22T16:33:41;10.90;;;2.05;;
52512;SDS011;38422;53.172;6.974;2022-10-22T16:36:11;9.98;;;1.60;;
52512;SDS011;38422;53.172;6.974;2022-10-22T16:38:38;7.40;;;1.73;;
52512;SDS011;38422;53.172;6.974;2022-10-22T16:41:13;6.75;;;1.67;;